createdAt,value
2023-04-25T00:01:25.577Z,99246.05
2023-04-25T00:03:58.859Z,99244.34
2023-04-25T00:06:37.256Z,99240.03
2023-04-25T00:09:12.371Z,99240.93
2023-04-25T00:11:44.972Z,99237.61
2023-04-25T00:14:19.932Z,99231.70
2023-04-25T00:16:52.849Z,99226.64
2023-04-25T00:19:26.039Z,99230.09
2023-04-25T00:21:59.586Z,99239.56
2023-04-25T00:24:32.104Z,99230.03
2023-04-25T00:27:05.047Z,99232.64
2023-04-25T00:29:37.718Z,99231.86
2023-04-25T00:32:11.491Z,99235.38
2023-04-25T00:34:44.671Z,99227.57
2023-04-25T00:37:17.196Z,99229.28
2023-04-25T00:39:51.394Z,99230.98
2023-04-25T00:42:24.821Z,99231.80
2023-04-25T00:44:58.164Z,99235.16
2023-04-25T00:47:34.359Z,99231.55
2023-04-25T00:50:09.179Z,99233.13
2023-04-25T00:52:45.393Z,99240.87
2023-04-25T00:55:20.603Z,99236.52
2023-04-25T00:57:54.624Z,99236.45
2023-04-25T01:00:27.409Z,99227.72
2023-04-25T01:03:01.717Z,99232.88
2023-04-25T01:05:34.595Z,99240.70
2023-04-25T01:08:07.411Z,99238.22
2023-04-25T01:10:46.200Z,99245.13
2023-04-25T01:13:18.658Z,99240.84
2023-04-25T01:15:53.647Z,99233.94
2023-04-25T01:18:26.310Z,99235.73
2023-04-25T01:20:59.762Z,99241.89
2023-04-25T01:23:34.540Z,99237.61
2023-04-25T01:26:08.757Z,99237.67
2023-04-25T01:28:42.902Z,99235.96
2023-04-25T01:31:18.933Z,99241.19
2023-04-25T01:33:52.713Z,99232.55
2023-04-25T01:36:26.427Z,99225.58
2023-04-25T01:39:00.406Z,99229.09
2023-04-25T01:41:33.707Z,99223.00
2023-04-25T01:44:11.646Z,99223.00
2023-04-25T01:46:47.800Z,99223.87
2023-04-25T01:49:20.464Z,99219.55
2023-04-25T01:51:54.062Z,99219.55
2023-04-25T01:54:27.365Z,99224.77
2023-04-25T01:57:01.173Z,99227.39
2023-04-25T01:59:33.946Z,99226.52
2023-04-25T02:02:24.204Z,99233.51
2023-04-25T02:04:59.263Z,99228.34
2023-04-25T02:07:34.372Z,99225.73
2023-04-25T02:10:08.837Z,99230.95
2023-04-25T02:12:48.159Z,99222.32
2023-04-25T02:15:46.789Z,99224.13
2023-04-25T02:21:00.655Z,99208.65
2023-04-25T02:23:34.589Z,99217.50
2023-04-25T02:26:08.358Z,99220.14
2023-04-25T02:28:44.309Z,99215.05
2023-04-25T02:31:16.725Z,99220.36
2023-04-25T02:33:50.539Z,99221.27
2023-04-25T02:36:21.747Z,99215.23
2023-04-25T02:38:54.947Z,99208.37
2023-04-25T02:41:27.266Z,99212.75
2023-04-25T02:44:01.636Z,99215.38
2023-04-25T02:46:39.541Z,99217.09
2023-04-25T02:49:14.454Z,99213.67
2023-04-25T02:51:47.434Z,99209.33
2023-04-25T02:54:21.001Z,99211.94
2023-04-25T02:56:54.969Z,99207.62
2023-04-25T02:59:31.214Z,99214.64
2023-04-25T03:02:04.904Z,99208.61
2023-04-25T03:04:38.241Z,99209.52
2023-04-25T03:07:13.137Z,99209.52
2023-04-25T03:09:45.859Z,99202.58
2023-04-25T03:12:18.761Z,99208.67
2023-04-25T03:14:51.985Z,99207.80
2023-04-25T03:17:27.712Z,99217.39
2023-04-25T03:20:01.735Z,99212.18
2023-04-25T03:22:35.361Z,99219.95
2023-04-25T03:25:10.145Z,99215.59
2023-04-25T03:27:42.748Z,99225.08
2023-04-25T03:30:19.058Z,99223.22
2023-04-25T03:32:52.370Z,99224.92
2023-04-25T03:35:26.190Z,99225.67
2023-04-25T03:37:59.169Z,99226.48
2023-04-25T03:40:35.295Z,99238.54
2023-04-25T03:43:34.106Z,99234.13
2023-04-25T03:46:10.772Z,99239.22
2023-04-25T03:48:42.159Z,99237.42
2023-04-25T03:51:15.409Z,99237.36
2023-04-25T03:53:49.677Z,99237.42
2023-04-25T03:56:22.684Z,99241.74
2023-04-25T03:59:01.239Z,99242.58
2023-04-25T04:01:35.558Z,99244.29
2023-04-25T04:04:12.433Z,99249.51
2023-04-25T04:06:46.475Z,99254.73
2023-04-25T04:09:28.702Z,99246.87
2023-04-25T04:12:03.738Z,99249.42
2023-04-25T04:14:39.346Z,99253.80
2023-04-25T04:17:12.075Z,99253.80
2023-04-25T04:19:47.607Z,99255.51
2023-04-25T04:22:27.097Z,99253.80
2023-04-25T04:25:03.739Z,99259.02
2023-04-25T04:28:00.094Z,99258.15
2023-04-25T04:30:56.798Z,99252.92
2023-04-25T04:33:29.270Z,99260.73
2023-04-25T04:36:09.526Z,99265.02
2023-04-25T04:38:44.007Z,99267.75
2023-04-25T04:41:24.410Z,99270.36
2023-04-25T04:44:19.393Z,99279.09
2023-04-25T04:47:14.247Z,99272.22
2023-04-25T04:50:03.657Z,99271.41
2023-04-25T04:52:45.687Z,99278.38
2023-04-25T04:55:45.613Z,99263.67
2023-04-25T04:58:38.386Z,99269.73
2023-04-25T05:01:18.439Z,99265.32
2023-04-25T05:04:14.704Z,99268.74
2023-04-25T05:07:26.342Z,99261.66
2023-04-25T05:10:12.398Z,99271.27
2023-04-25T05:13:08.265Z,99273.15
2023-04-25T05:15:57.128Z,99280.23
2023-04-25T05:18:55.253Z,99274.32
2023-04-25T05:21:59.221Z,99277.08
2023-04-25T05:24:46.938Z,99266.67
2023-04-25T05:27:45.611Z,99269.34
2023-04-25T05:30:47.702Z,99270.15
2023-04-25T05:33:42.883Z,99274.41
2023-04-25T05:36:15.280Z,99269.10
2023-04-25T05:38:48.233Z,99266.34
2023-04-25T05:41:21.616Z,99271.41
2023-04-25T05:44:03.468Z,99273.06
2023-04-25T05:46:50.654Z,99277.38
2023-04-25T05:49:38.096Z,99280.83
2023-04-25T05:52:26.456Z,99285.15
2023-04-25T05:55:22.589Z,99286.86
2023-04-25T05:57:55.368Z,99283.41
2023-04-25T06:00:28.979Z,99277.38
2023-04-25T06:03:02.966Z,99284.55
2023-04-25T06:05:35.763Z,99289.05
2023-04-25T06:08:08.913Z,99296.03
2023-04-25T06:10:41.732Z,99302.09
2023-04-25T06:13:14.208Z,99309.09
2023-04-25T06:15:48.000Z,99318.83
2023-04-25T06:18:20.871Z,99334.57
2023-04-25T06:20:53.879Z,99356.48
2023-04-25T06:23:26.726Z,99361.02
2023-04-25T06:26:07.038Z,99362.00
2023-04-25T06:28:40.356Z,99361.29
2023-04-25T06:31:12.863Z,99351.81
2023-04-25T06:33:45.742Z,99349.34
2023-04-25T06:36:18.034Z,99353.82
2023-04-25T06:38:52.925Z,99351.21
2023-04-25T06:41:25.784Z,99355.59
2023-04-25T06:43:58.715Z,99343.50
2023-04-25T06:46:39.315Z,99345.23
2023-04-25T06:49:12.537Z,99343.50
2023-04-25T06:51:45.636Z,99342.47
2023-04-25T06:54:19.344Z,99325.79
2023-04-25T06:57:02.126Z,99331.63
2023-04-25T06:59:35.011Z,99331.37
2023-04-25T07:02:10.250Z,99332.05
2023-04-25T07:04:43.475Z,99322.28
2023-04-25T07:07:27.552Z,99325.58
2023-04-25T07:10:09.681Z,99322.80
2023-04-25T07:12:43.131Z,99325.34
2023-04-25T07:15:15.879Z,99324.53
2023-04-25T07:17:51.243Z,99335.23
2023-04-25T07:20:25.408Z,99331.81
2023-04-25T07:22:58.833Z,99328.31
2023-04-25T07:25:31.842Z,99332.57
2023-04-25T07:28:05.568Z,99330.72
2023-04-25T07:30:38.042Z,99331.32
2023-04-25T07:33:11.576Z,99332.88
2023-04-25T07:35:44.117Z,99341.44
2023-04-25T07:38:20.093Z,99343.00
2023-04-25T07:40:54.455Z,99344.70
2023-04-25T07:43:29.909Z,99344.50
2023-04-25T07:46:08.279Z,99342.04
2023-04-25T07:48:43.370Z,99343.00
2023-04-25T07:51:16.263Z,99351.43
2023-04-25T07:53:49.552Z,99349.48
2023-04-25T07:56:24.538Z,99356.35
2023-04-25T07:58:58.473Z,99356.72
2023-04-25T08:01:31.674Z,99350.83
2023-04-25T08:04:08.858Z,99350.98
2023-04-25T08:07:03.180Z,99347.47
2023-04-25T08:09:41.252Z,99344.65
2023-04-25T08:12:19.441Z,99352.33
2023-04-25T08:14:56.652Z,99349.72
2023-04-25T08:17:30.661Z,99351.55
2023-04-25T08:20:06.625Z,99359.33
2023-04-25T08:22:40.576Z,99360.37
2023-04-25T08:25:32.306Z,99361.42
2023-04-25T08:28:05.389Z,99364.20
2023-04-25T08:30:38.954Z,99362.70
2023-04-25T08:33:16.276Z,99371.42
2023-04-25T08:36:31.549Z,99378.50
2023-04-25T08:39:11.265Z,99374.23
2023-04-25T08:41:52.489Z,99380.52
2023-04-25T08:44:26.303Z,99392.88
2023-04-25T08:46:59.875Z,99389.39
2023-04-25T08:49:37.459Z,99393.84
2023-04-25T08:52:15.357Z,99396.57
2023-04-25T08:54:52.806Z,99401.05
2023-04-25T08:57:28.862Z,99404.48
2023-04-25T09:00:06.761Z,99399.18
2023-04-25T09:02:41.323Z,99399.88
2023-04-25T09:05:17.037Z,99403.22
2023-04-25T09:07:53.279Z,99411.13
2023-04-25T09:10:25.617Z,99410.52
2023-04-25T09:13:12.573Z,99412.25
2023-04-25T09:16:24.003Z,99414.04
2023-04-25T09:19:39.804Z,99416.70
2023-04-25T09:22:31.563Z,99420.31
2023-04-25T09:25:09.883Z,99418.67
2023-04-25T09:27:54.575Z,99424.79
2023-04-25T09:30:40.004Z,99428.33
2023-04-25T09:33:19.157Z,99429.98
2023-04-25T09:35:57.794Z,99434.15
2023-04-25T09:38:54.751Z,99440.12
2023-04-25T09:41:37.525Z,99434.07
2023-04-25T09:44:10.801Z,99441.95
2023-04-25T09:46:45.182Z,99440.19
2023-04-25T09:49:23.743Z,99447.17
2023-04-25T09:52:11.985Z,99450.67
2023-04-25T09:54:53.873Z,99452.41
2023-04-25T09:57:32.585Z,99447.23
2023-04-25T10:00:06.651Z,99449.84
2023-04-25T10:02:51.471Z,99442.89
2023-04-25T10:05:42.304Z,99452.41
2023-04-25T10:08:16.010Z,99453.30
2023-04-25T10:10:55.343Z,99455.84
2023-04-25T10:13:28.453Z,99447.06
2023-04-25T10:16:01.879Z,99454.05
2023-04-25T10:18:36.296Z,99454.17
2023-04-25T10:21:09.787Z,99453.38
2023-04-25T10:23:42.950Z,99456.06
2023-04-25T10:26:15.735Z,99453.61
2023-04-25T10:29:02.322Z,99460.72
2023-04-25T10:31:36.571Z,99449.47
2023-04-25T10:34:09.358Z,99452.89
2023-04-25T10:36:42.172Z,99460.64
2023-04-25T10:39:14.761Z,99458.83
2023-04-25T10:41:58.705Z,99449.39
2023-04-25T10:44:33.813Z,99449.47
2023-04-25T10:47:08.832Z,99449.41
2023-04-25T10:49:46.135Z,99451.11
2023-04-25T10:52:28.013Z,99451.05
2023-04-25T10:55:01.722Z,99449.34
2023-04-25T10:57:47.567Z,99445.78
2023-04-25T11:00:25.908Z,99449.97
2023-04-25T11:03:04.639Z,99446.30
2023-04-25T11:05:55.208Z,99447.95
2023-04-25T11:08:43.165Z,99451.30
2023-04-25T11:11:17.185Z,99439.78
2023-04-25T11:13:51.871Z,99452.55
2023-04-25T11:16:29.044Z,99447.12
2023-04-25T11:19:03.849Z,99452.17
2023-04-25T11:21:36.129Z,99448.55
2023-04-25T11:24:10.116Z,99449.31
2023-04-25T11:26:45.206Z,99445.77
2023-04-25T11:29:17.578Z,99455.13
2023-04-25T11:31:52.173Z,99448.91
2023-04-25T11:34:27.275Z,99454.83
2023-04-25T11:37:00.875Z,99452.98
2023-04-25T11:39:36.141Z,99449.47
2023-04-25T11:42:12.138Z,99447.81
2023-04-25T11:44:46.926Z,99446.08
2023-04-25T11:47:19.605Z,99446.83
2023-04-25T11:49:56.441Z,99454.69
2023-04-25T11:52:37.252Z,99452.34
2023-04-25T11:55:15.880Z,99453.49
2023-04-25T11:57:51.287Z,99450.23
2023-04-25T12:00:27.454Z,99448.69
2023-04-25T12:03:01.750Z,99449.81
2023-04-25T12:05:35.761Z,99457.83
2023-04-25T12:08:16.488Z,99446.63
2023-04-25T12:10:51.765Z,99448.42
2023-04-25T12:13:29.327Z,99447.74
2023-04-25T12:16:04.497Z,99448.56
2023-04-25T12:18:40.356Z,99457.20
2023-04-25T12:21:14.497Z,99455.44
2023-04-25T12:23:46.832Z,99446.69
2023-04-25T12:26:23.570Z,99454.41
2023-04-25T12:28:56.623Z,99454.38
2023-04-25T12:31:32.117Z,99456.17
2023-04-25T12:34:05.626Z,99454.52
2023-04-25T12:36:38.310Z,99448.42
2023-04-25T12:39:11.445Z,99451.91
2023-04-25T12:41:46.179Z,99454.46
2023-04-25T12:44:18.836Z,99451.80
2023-04-25T12:46:52.784Z,99449.19
2023-04-25T12:49:26.901Z,99452.61
2023-04-25T12:52:01.118Z,99442.12
2023-04-25T12:54:40.972Z,99439.56
2023-04-25T12:57:18.516Z,99444.02
2023-04-25T12:59:51.006Z,99443.02
2023-04-25T13:02:27.448Z,99435.16
2023-04-25T13:05:00.135Z,99436.95
2023-04-25T13:07:34.155Z,99439.48
2023-04-25T13:10:09.959Z,99434.27
2023-04-25T13:12:42.619Z,99439.42
2023-04-25T13:15:16.678Z,99434.04
2023-04-25T13:17:49.505Z,99431.17
2023-04-25T13:20:23.597Z,99436.14
2023-04-25T13:22:54.690Z,99436.14
2023-04-25T13:25:27.207Z,99433.42
2023-04-25T13:28:00.937Z,99429.97
2023-04-25T13:30:33.325Z,99424.89
2023-04-25T13:33:07.905Z,99430.14
2023-04-25T13:35:41.699Z,99431.01
2023-04-25T13:38:14.255Z,99427.44
2023-04-25T13:40:47.269Z,99431.68
2023-04-25T13:43:19.775Z,99423.03
2023-04-25T13:45:52.642Z,99422.08
2023-04-25T13:48:27.982Z,99427.27
2023-04-25T13:51:02.501Z,99423.70
2023-04-25T13:53:35.714Z,99427.91
2023-04-25T13:56:08.995Z,99420.86
2023-04-25T13:58:42.258Z,99419.00
2023-04-25T14:01:14.833Z,99418.27
2023-04-25T14:03:48.422Z,99422.08
2023-04-25T14:06:24.040Z,99417.88
2023-04-25T14:09:02.090Z,99417.73
2023-04-25T14:11:36.132Z,99426.34
2023-04-25T14:14:08.858Z,99422.83
2023-04-25T14:16:41.616Z,99426.25
2023-04-25T14:19:14.505Z,99423.50
2023-04-25T14:21:47.574Z,99429.62
2023-04-25T14:24:20.501Z,99422.59
2023-04-25T14:26:53.424Z,99426.02
2023-04-25T14:29:29.516Z,99430.34
2023-04-25T14:32:03.312Z,99422.45
2023-04-25T14:34:37.233Z,99426.08
2023-04-25T14:37:09.806Z,99424.60
2023-04-25T14:39:44.155Z,99423.98
2023-04-25T14:42:18.790Z,99427.78
2023-04-25T14:44:58.789Z,99433.37
2023-04-25T14:47:31.469Z,99432.83
2023-04-25T14:50:04.343Z,99436.60
2023-04-25T14:52:37.327Z,99428.93
2023-04-25T14:55:11.167Z,99441.31
2023-04-25T14:57:43.845Z,99436.15
2023-04-25T15:00:19.357Z,99448.39
2023-04-25T15:02:56.730Z,99440.62
2023-04-25T15:05:29.761Z,99439.86
2023-04-25T15:08:02.631Z,99433.08
2023-04-25T15:10:35.467Z,99431.49
2023-04-25T15:13:08.737Z,99440.19
2023-04-25T15:15:41.802Z,99445.47
2023-04-25T15:18:14.461Z,99440.44
2023-04-25T15:20:47.641Z,99442.30
2023-04-25T15:23:22.388Z,99437.16
2023-04-25T15:25:56.782Z,99440.76
2023-04-25T15:28:28.376Z,99433.88
2023-04-25T15:31:01.680Z,99444.33
2023-04-25T15:33:34.045Z,99441.72
2023-04-25T15:36:07.766Z,99441.77
2023-04-25T15:38:40.635Z,99435.66
2023-04-25T15:41:15.499Z,99444.33
2023-04-25T15:43:50.709Z,99445.15
2023-04-25T15:46:24.015Z,99454.75
2023-04-25T15:48:59.238Z,99452.31
2023-04-25T15:51:32.165Z,99458.54
2023-04-25T15:54:05.664Z,99463.87
2023-04-25T15:56:38.028Z,99462.28
2023-04-25T15:59:10.824Z,99453.81
2023-04-25T16:01:44.624Z,99459.19
2023-04-25T16:04:18.024Z,99456.70
2023-04-25T16:06:50.835Z,99456.77
2023-04-25T16:09:23.551Z,99456.93
2023-04-25T16:11:56.795Z,99461.42
2023-04-25T16:14:29.458Z,99465.02
2023-04-25T16:17:01.836Z,99462.59
2023-04-25T16:19:34.710Z,99472.28
2023-04-25T16:22:09.109Z,99468.88
2023-04-25T16:24:41.629Z,99475.92
2023-04-25T16:27:13.990Z,99475.19
2023-04-25T16:29:46.698Z,99480.53
2023-04-25T16:32:19.220Z,99485.84
2023-04-25T16:34:51.596Z,99480.75
2023-04-25T16:37:26.426Z,99480.02
2023-04-25T16:40:00.017Z,99480.99
2023-04-25T16:42:33.224Z,99491.59
2023-04-25T16:45:11.217Z,99487.38
2023-04-25T16:47:43.586Z,99486.62
2023-04-25T16:50:16.527Z,99490.20
2023-04-25T16:52:49.189Z,99488.58
2023-04-25T16:55:22.501Z,99492.14
2023-04-25T16:57:55.977Z,99492.23
2023-04-25T17:00:28.340Z,99495.72
2023-04-25T17:03:02.150Z,99499.23
2023-04-25T17:05:33.431Z,99495.00
2023-04-25T17:08:07.024Z,99503.72
2023-04-25T17:10:39.399Z,99511.56
2023-04-25T17:13:12.113Z,99511.64
2023-04-25T17:15:44.647Z,99504.77
2023-04-25T17:18:18.510Z,99521.28
2023-04-25T17:20:51.207Z,99517.88
2023-04-25T17:23:24.823Z,99519.64
2023-04-25T17:25:57.330Z,99520.59
2023-04-25T17:28:33.402Z,99526.70
2023-04-25T17:31:05.933Z,99522.39
2023-04-25T17:33:39.057Z,99529.34
2023-04-25T17:36:11.885Z,99527.63
2023-04-25T17:38:44.262Z,99535.45
2023-04-25T17:41:17.717Z,99527.70
2023-04-25T17:43:50.930Z,99531.21
2023-04-25T17:46:23.283Z,99536.37
2023-04-25T17:48:56.426Z,99536.41
2023-04-25T17:51:29.945Z,99542.45
2023-04-25T17:54:02.642Z,99549.43
2023-04-25T17:56:39.935Z,99545.11
2023-04-25T17:59:13.697Z,99551.19
2023-04-25T18:01:48.050Z,99554.66
2023-04-25T18:04:22.176Z,99559.05
2023-04-25T18:06:56.094Z,99565.12
2023-04-25T18:09:28.746Z,99565.12
2023-04-25T18:12:04.941Z,99565.99
2023-04-25T18:14:38.975Z,99575.54
2023-04-25T18:17:12.837Z,99584.20
2023-04-25T18:19:48.991Z,99586.80
2023-04-25T18:22:22.337Z,99588.55
2023-04-25T18:24:56.930Z,99587.68
2023-04-25T18:27:29.783Z,99584.24
2023-04-25T18:30:03.015Z,99590.31
2023-04-25T18:32:36.145Z,99589.47
2023-04-25T18:35:10.806Z,99594.66
2023-04-25T18:37:45.445Z,99601.61
2023-04-25T18:40:18.647Z,99601.61
2023-04-25T18:42:52.419Z,99605.08
2023-04-25T18:45:26.056Z,99607.67
2023-04-25T18:48:02.533Z,99611.98
2023-04-25T18:50:35.915Z,99618.91
2023-04-25T18:53:08.795Z,99617.19
2023-04-25T18:55:42.484Z,99610.27
2023-04-25T18:58:16.475Z,99619.78
2023-04-25T19:00:54.061Z,99609.42
2023-04-25T19:03:28.968Z,99619.81
2023-04-25T19:06:03.469Z,99612.90
2023-04-25T19:08:37.673Z,99618.94
2023-04-25T19:11:20.525Z,99618.94
2023-04-25T19:13:57.475Z,99625.00
2023-04-25T19:16:30.532Z,99626.73
2023-04-25T19:19:04.337Z,99626.73
2023-04-25T19:21:37.505Z,99637.11
2023-04-25T19:24:11.977Z,99637.98
2023-04-25T19:26:47.001Z,99626.73
2023-04-25T19:29:21.772Z,99631.92
2023-04-25T19:31:57.416Z,99631.92
2023-04-25T19:34:30.188Z,99636.23
2023-04-25T19:37:02.480Z,99640.55
2023-04-25T19:39:34.888Z,99637.05
2023-04-25T19:42:08.927Z,99631.85
2023-04-25T19:44:41.760Z,99625.78
2023-04-25T19:47:14.044Z,99624.91
2023-04-25T19:49:48.655Z,99635.33
2023-04-25T19:52:22.212Z,99636.17
2023-04-25T19:54:58.490Z,99635.33
2023-04-25T19:57:33.342Z,99625.78
2023-04-25T20:00:11.104Z,99633.58
2023-04-25T20:02:49.918Z,99631.86
2023-04-25T20:05:23.750Z,99631.85
2023-04-25T20:07:57.159Z,99628.45
2023-04-25T20:10:29.519Z,99631.89
2023-04-25T20:13:02.461Z,99630.17
2023-04-25T20:15:35.022Z,99632.77
2023-04-25T20:18:07.498Z,99634.48
2023-04-25T20:20:41.228Z,99634.48
2023-04-25T20:23:13.639Z,99643.15
2023-04-25T20:25:48.298Z,99631.02
2023-04-25T20:28:23.422Z,99622.38
2023-04-25T20:30:57.567Z,99624.97
2023-04-25T20:33:28.478Z,99632.77
2023-04-25T20:36:05.153Z,99637.11
2023-04-25T20:38:38.019Z,99635.42
2023-04-25T20:41:10.947Z,99639.70
2023-04-25T20:43:44.496Z,99639.67
2023-04-25T20:46:17.987Z,99637.05
2023-04-25T20:48:53.531Z,99637.05
2023-04-25T20:51:27.989Z,99645.75
2023-04-25T20:54:04.057Z,99642.24
2023-04-25T20:56:40.359Z,99646.56
2023-04-25T20:59:14.170Z,99649.16
2023-04-25T21:01:46.598Z,99639.64
2023-04-25T21:04:20.675Z,99650.87
2023-04-25T21:06:53.141Z,99646.56
2023-04-25T21:09:26.259Z,99638.77
2023-04-25T21:11:59.649Z,99646.56
2023-04-25T21:14:32.434Z,99643.09
2023-04-25T21:17:05.137Z,99640.48
2023-04-25T21:19:37.685Z,99635.30
2023-04-25T21:22:12.470Z,99640.48
2023-04-25T21:24:45.246Z,99641.37
2023-04-25T21:27:18.812Z,99629.26
2023-04-25T21:29:52.555Z,99635.30
2023-04-25T21:32:25.387Z,99637.05
2023-04-25T21:34:58.799Z,99636.17
2023-04-25T21:37:31.120Z,99635.33
2023-04-25T21:40:04.775Z,99628.41
2023-04-25T21:42:37.644Z,99640.55
2023-04-25T21:45:15.271Z,99643.99
2023-04-25T21:47:48.488Z,99636.17
2023-04-25T21:50:23.016Z,99636.17
2023-04-25T21:52:58.982Z,99633.58
2023-04-25T21:55:31.868Z,99634.42
2023-04-25T21:58:05.394Z,99626.63
2023-04-25T22:00:37.890Z,99633.55
2023-04-25T22:03:10.413Z,99630.11
2023-04-25T22:05:45.310Z,99633.58
2023-04-25T22:08:17.768Z,99637.05
2023-04-25T22:10:55.601Z,99643.15
2023-04-25T22:13:29.239Z,99644.90
2023-04-25T22:16:02.454Z,99642.36
2023-04-25T22:18:38.181Z,99645.86
2023-04-25T22:21:10.782Z,99652.80
2023-04-25T22:23:43.329Z,99651.99
2023-04-25T22:26:15.901Z,99647.67
2023-04-25T22:28:48.191Z,99655.46
2023-04-25T22:31:22.959Z,99653.74
2023-04-25T22:33:56.377Z,99654.61
2023-04-25T22:36:30.435Z,99652.05
2023-04-25T22:39:06.080Z,99660.73
2023-04-25T22:41:39.279Z,99658.17
2023-04-25T22:44:12.224Z,99661.67
2023-04-25T22:46:44.809Z,99659.94
2023-04-25T22:49:17.604Z,99664.29
2023-04-25T22:51:54.932Z,99665.16
2023-04-25T22:54:28.681Z,99669.50
2023-04-25T22:57:03.857Z,99677.31
2023-04-25T22:59:38.229Z,99671.28
2023-04-25T23:02:11.216Z,99664.39
2023-04-25T23:04:44.932Z,99669.58
2023-04-25T23:07:18.781Z,99672.17
2023-04-25T23:09:54.405Z,99671.36
2023-04-25T23:12:31.714Z,99684.33
2023-04-25T23:15:05.597Z,99680.91
2023-04-25T23:17:38.526Z,99688.72
2023-04-25T23:20:12.502Z,99688.77
2023-04-25T23:22:44.909Z,99687.06
2023-04-25T23:25:18.364Z,99686.22
2023-04-25T23:27:51.206Z,99682.77
2023-04-25T23:30:24.043Z,99676.77
2023-04-25T23:33:01.472Z,99691.45
2023-04-25T23:35:38.712Z,99687.15
2023-04-25T23:38:16.688Z,99683.73
2023-04-25T23:40:51.609Z,99688.97
2023-04-25T23:43:24.369Z,99700.23
2023-04-25T23:46:00.431Z,99707.13
2023-04-25T23:48:33.084Z,99694.19
2023-04-25T23:51:06.552Z,99704.56
2023-04-25T23:53:40.619Z,99704.56
2023-04-25T23:56:16.007Z,99701.98
2023-04-25T23:58:48.883Z,99705.47
